Time;durP1;ratioP1;P1;durP2;ratioP2;P2;SDS_P1;SDS_P2;PMS_P1;PMS_P2;Temp;Humidity;BMP_temperature;BMP_pressure;BME280_temperature;BME280_humidity;BME280_pressure;Samples;Min_cycle;Max_cycle;Signal;HPM_P1;HPM_P2
2023/02/11 00:00:29;;;;;;;34.83;16.83;;;;;;;;;;5067224;28;20470;-93
2023/02/11 00:02:54;;;;;;;31.57;17.80;;;;;;;;;;5065499;28;20454;-88
2023/02/11 00:05:20;;;;;;;30.87;17.33;;;;;;;;;;5063771;28;20419;-85
2023/02/11 00:07:46;;;;;;;42.67;18.30;;;;;;;;;;5062049;28;20400;-85
2023/02/11 00:10:12;;;;;;;32.13;18.20;;;;;;;;;;5081706;28;20775;-90
2023/02/11 00:12:38;;;;;;;38.63;19.07;;;;;;;;;;5063876;28;20427;-86
2023/02/11 00:15:05;;;;;;;31.10;16.73;;;;;;;;;;5083580;28;20396;-88
2023/02/11 00:17:38;;;;;;;32.10;16.73;;;;;;;;;;5066140;28;20416;-92
2023/02/11 00:20:05;;;;;;;29.60;18.03;;;;;;;;;;5064466;28;20514;-91
2023/02/11 00:22:31;;;;;;;32.80;17.23;;;;;;;;;;5063573;28;20976;-88
2023/02/11 00:24:57;;;;;;;30.90;15.63;;;;;;;;;;5079635;28;20405;-91
2023/02/11 00:27:23;;;;;;;40.27;19.47;;;;;;;;;;5079885;28;20420;-88
2023/02/11 00:29:49;;;;;;;35.87;17.97;;;;;;;;;;5065978;28;20412;-92
2023/02/11 00:32:15;;;;;;;26.87;16.17;;;;;;;;;;5061431;28;20415;-89
2023/02/11 00:34:41;;;;;;;30.73;17.10;;;;;;;;;;5079763;28;20452;-92
2023/02/11 00:37:07;;;;;;;32.87;18.30;;;;;;;;;;5085305;28;20413;-89
2023/02/11 00:39:32;;;;;;;31.53;17.60;;;;;;;;;;5063552;28;20478;-93
2023/02/11 00:41:58;;;;;;;37.03;19.80;;;;;;;;;;5080190;28;20429;-87
2023/02/11 00:44:24;;;;;;;33.07;16.93;;;;;;;;;;5079479;28;20427;-87
2023/02/11 00:46:50;;;;;;;28.23;15.80;;;;;;;;;;5067813;28;20417;-87
2023/02/11 00:49:17;;;;;;;36.63;19.50;;;;;;;;;;5071862;28;20458;-87
2023/02/11 00:51:43;;;;;;;28.50;17.77;;;;;;;;;;5069773;28;20420;-92
2023/02/11 00:54:09;;;;;;;37.50;17.47;;;;;;;;;;5086837;28;20429;-94
2023/02/11 00:56:35;;;;;;;40.90;19.63;;;;;;;;;;5082137;28;20443;-92
2023/02/11 00:59:01;;;;;;;31.73;17.67;;;;;;;;;;5085618;28;20453;-89
2023/02/11 01:01:27;;;;;;;36.00;19.07;;;;;;;;;;5082443;28;20426;-91
2023/02/11 01:03:53;;;;;;;36.30;19.53;;;;;;;;;;5082593;28;20821;-87
2023/02/11 01:06:19;;;;;;;45.23;20.67;;;;;;;;;;5083311;28;20421;-91
2023/02/11 01:08:45;;;;;;;32.23;17.47;;;;;;;;;;5083753;28;20523;-92
2023/02/11 01:11:12;;;;;;;36.87;19.80;;;;;;;;;;5085295;28;20417;-88
2023/02/11 01:13:38;;;;;;;36.00;20.37;;;;;;;;;;5085524;28;20414;-94
2023/02/11 01:16:06;;;;;;;33.00;19.00;;;;;;;;;;5083879;28;20420;-94
2023/02/11 01:18:32;;;;;;;38.60;18.50;;;;;;;;;;5082523;28;20472;-93
2023/02/11 01:20:58;;;;;;;41.17;19.60;;;;;;;;;;5083387;28;20507;-94
2023/02/11 01:23:24;;;;;;;29.80;18.37;;;;;;;;;;5084236;28;20412;-90
2023/02/11 01:25:50;;;;;;;37.20;19.77;;;;;;;;;;5084027;28;20438;-93
2023/02/11 01:28:17;;;;;;;31.37;17.67;;;;;;;;;;5077316;28;20884;-92
2023/02/11 01:30:43;;;;;;;33.93;18.93;;;;;;;;;;5075773;28;20456;-91
2023/02/11 01:33:08;;;;;;;32.37;18.67;;;;;;;;;;5076330;28;20421;-93
2023/02/11 01:35:34;;;;;;;32.87;18.47;;;;;;;;;;5077186;28;20403;-94
2023/02/11 01:38:00;;;;;;;39.17;18.27;;;;;;;;;;5077765;28;20405;-91
2023/02/11 01:40:26;;;;;;;42.50;21.77;;;;;;;;;;5076501;28;20464;-90
2023/02/11 01:42:52;;;;;;;34.43;18.10;;;;;;;;;;5076069;28;20420;-93
2023/02/11 01:45:40;;;;;;;35.53;19.70;;;;;;;;;;5076258;28;20424;-90
2023/02/11 01:48:06;;;;;;;37.93;18.30;;;;;;;;;;5077315;28;20458;-91
2023/02/11 01:50:33;;;;;;;34.23;18.30;;;;;;;;;;5080144;28;20448;-91
2023/02/11 01:57:20;;;;;;;35.20;19.00;;;;;;;;;;5080205;28;20962;-93
2023/02/11 01:58:32;;;;;;;39.13;19.83;;;;;;;;;;5079095;28;20421;-93
2023/02/11 02:00:58;;;;;;;41.97;17.67;;;;;;;;;;5078528;28;20442;-92
2023/02/11 02:03:24;;;;;;;34.47;16.83;;;;;;;;;;5077986;28;20602;-89
2023/02/11 02:06:06;;;;;;;30.17;17.80;;;;;;;;;;5078506;28;20428;-94
2023/02/11 02:08:38;;;;;;;35.83;16.40;;;;;;;;;;5079204;28;20414;-93
2023/02/11 02:11:13;;;;;;;31.43;18.40;;;;;;;;;;5078623;28;20460;-93
2023/02/11 02:13:42;;;;;;;36.03;16.60;;;;;;;;;;5080921;28;20482;-94
2023/02/11 02:16:13;;;;;;;28.50;16.07;;;;;;;;;;5082885;28;20491;-94
2023/02/11 02:18:42;;;;;;;33.00;16.80;;;;;;;;;;5080662;28;20411;-93
2023/02/11 02:21:26;;;;;;;33.37;17.50;;;;;;;;;;5088812;28;20446;-91
2023/02/11 02:24:11;;;;;;;31.37;17.13;;;;;;;;;;5087967;28;20405;-93
2023/02/11 02:27:02;;;;;;;39.27;17.63;;;;;;;;;;5080739;28;20413;-93
2023/02/11 02:29:44;;;;;;;34.93;17.13;;;;;;;;;;5083739;28;20417;-92
2023/02/11 02:32:19;;;;;;;29.47;16.53;;;;;;;;;;5081848;28;20401;-93
2023/02/11 02:34:44;;;;;;;36.27;18.77;;;;;;;;;;5080305;28;20922;-94
2023/02/11 02:37:14;;;;;;;31.27;18.93;;;;;;;;;;5081811;28;20466;-92
2023/02/11 02:39:40;;;;;;;33.73;16.60;;;;;;;;;;5080610;28;20205;-92
2023/02/11 02:42:06;;;;;;;30.77;16.60;;;;;;;;;;5078230;28;20440;-89
2023/02/11 02:44:33;;;;;;;38.87;17.80;;;;;;;;;;5077223;28;20421;-89
2023/02/11 02:47:02;;;;;;;32.27;14.93;;;;;;;;;;5081953;28;20406;-93
2023/02/11 02:49:27;;;;;;;28.53;17.10;;;;;;;;;;5081365;28;20410;-91
2023/02/11 02:52:26;;;;;;;24.87;14.87;;;;;;;;;;5081191;28;20418;-88
2023/02/11 02:55:10;;;;;;;33.90;15.87;;;;;;;;;;5046365;28;20423;-93
2023/02/11 02:57:55;;;;;;;24.50;13.60;;;;;;;;;;5079419;28;20410;-87
2023/02/11 03:00:28;;;;;;;29.07;15.60;;;;;;;;;;5077847;28;20477;-90
2023/02/11 03:02:54;;;;;;;26.83;13.97;;;;;;;;;;5076376;28;20831;-93
2023/02/11 03:05:39;;;;;;;30.23;14.30;;;;;;;;;;5078286;28;20430;-88
2023/02/11 03:08:08;;;;;;;26.13;13.37;;;;;;;;;;5082967;28;20178;-93
2023/02/11 03:10:45;;;;;;;35.10;16.13;;;;;;;;;;5081669;28;20442;-89
2023/02/11 03:13:12;;;;;;;26.37;13.83;;;;;;;;;;5082049;28;20395;-88
2023/02/11 03:15:41;;;;;;;29.23;14.80;;;;;;;;;;5080762;28;20418;-86
2023/02/11 03:18:09;;;;;;;29.87;15.93;;;;;;;;;;5090492;28;20407;-89
2023/02/11 03:20:36;;;;;;;28.13;16.37;;;;;;;;;;5082767;28;20468;-94
2023/02/11 03:23:13;;;;;;;35.63;14.50;;;;;;;;;;5082309;28;20497;-87
2023/02/11 03:25:57;;;;;;;28.27;15.10;;;;;;;;;;5076955;28;20444;-91
2023/02/11 03:28:40;;;;;;;24.90;14.90;;;;;;;;;;5076537;28;20437;-94
2023/02/11 03:31:14;;;;;;;28.77;14.87;;;;;;;;;;5085627;28;20405;-87
2023/02/11 03:33:53;;;;;;;33.30;13.77;;;;;;;;;;5087665;28;20753;-91
2023/02/11 03:36:23;;;;;;;26.93;13.90;;;;;;;;;;5086328;28;20408;-95
2023/02/11 03:38:51;;;;;;;22.10;12.87;;;;;;;;;;5081135;28;20398;-93
2023/02/11 03:41:20;;;;;;;33.43;14.40;;;;;;;;;;5075741;28;20488;-90
2023/02/11 03:43:49;;;;;;;33.10;15.23;;;;;;;;;;5074705;28;20444;-92
2023/02/11 03:46:17;;;;;;;25.73;14.50;;;;;;;;;;5081058;28;20422;-92
2023/02/11 03:48:50;;;;;;;29.73;13.73;;;;;;;;;;5083545;28;20397;-89
2023/02/11 03:51:17;;;;;;;34.00;14.57;;;;;;;;;;5089300;28;20436;-87
2023/02/11 03:53:44;;;;;;;26.20;13.87;;;;;;;;;;5077764;28;20429;-94
2023/02/11 03:56:13;;;;;;;22.87;14.57;;;;;;;;;;5077328;28;20412;-94
2023/02/11 03:58:39;;;;;;;33.57;15.20;;;;;;;;;;5077167;28;20435;-88
2023/02/11 04:01:08;;;;;;;22.97;13.07;;;;;;;;;;5076859;28;20493;-87
2023/02/11 04:03:34;;;;;;;27.87;13.70;;;;;;;;;;5076340;28;20477;-95
2023/02/11 04:06:00;;;;;;;24.10;12.67;;;;;;;;;;5076825;28;20426;-93
2023/02/11 04:08:26;;;;;;;23.07;12.50;;;;;;;;;;5077113;28;20413;-93
2023/02/11 04:10:52;;;;;;;40.73;16.70;;;;;;;;;;5077423;28;20409;-93
2023/02/11 04:13:18;;;;;;;26.23;12.87;;;;;;;;;;5077264;28;20763;-94
2023/02/11 04:15:44;;;;;;;25.67;13.97;;;;;;;;;;5077401;28;20418;-94
2023/02/11 04:18:10;;;;;;;26.30;11.57;;;;;;;;;;5077133;28;20414;-94
2023/02/11 04:20:35;;;;;;;35.60;14.90;;;;;;;;;;5077275;28;20476;-94
2023/02/11 04:23:01;;;;;;;25.20;12.53;;;;;;;;;;5081545;28;20425;-90
2023/02/11 04:25:28;;;;;;;24.83;10.50;;;;;;;;;;5079428;28;20502;-92
2023/02/11 04:27:53;;;;;;;19.20;12.27;;;;;;;;;;5077724;28;20457;-90
2023/02/11 04:30:19;;;;;;;22.90;12.57;;;;;;;;;;5076789;28;20413;-90
2023/02/11 04:32:45;;;;;;;26.00;12.57;;;;;;;;;;5077982;28;20409;-93
2023/02/11 04:35:11;;;;;;;30.83;11.60;;;;;;;;;;5075787;28;20420;-89
2023/02/11 04:37:37;;;;;;;34.90;15.07;;;;;;;;;;5075514;28;20424;-92
2023/02/11 04:40:03;;;;;;;23.50;11.73;;;;;;;;;;5077279;28;20980;-91
2023/02/11 04:42:29;;;;;;;22.97;12.03;;;;;;;;;;5075391;28;20504;-93
2023/02/11 04:44:55;;;;;;;21.80;10.50;;;;;;;;;;5075203;28;20842;-93
2023/02/11 04:47:21;;;;;;;19.43;10.67;;;;;;;;;;5077716;28;20408;-94
2023/02/11 04:49:47;;;;;;;20.57;10.50;;;;;;;;;;5075053;28;20434;-95
2023/02/11 04:52:13;;;;;;;25.67;11.00;;;;;;;;;;5075967;28;20421;-93
2023/02/11 04:54:39;;;;;;;19.97;10.20;;;;;;;;;;5075087;28;20470;-93
2023/02/11 04:57:05;;;;;;;21.80;10.83;;;;;;;;;;5074248;28;20421;-86
2023/02/11 04:59:31;;;;;;;25.27;11.00;;;;;;;;;;5074875;28;20482;-94
2023/02/11 05:01:57;;;;;;;16.43;9.53;;;;;;;;;;5075129;28;20443;-93
2023/02/11 05:04:23;;;;;;;18.20;10.13;;;;;;;;;;5075622;28;20933;-94
2023/02/11 05:06:52;;;;;;;20.43;11.47;;;;;;;;;;5077371;28;20472;-95
2023/02/11 05:09:18;;;;;;;22.87;9.57;;;;;;;;;;5077300;28;20433;-92
2023/02/11 05:11:47;;;;;;;21.43;9.90;;;;;;;;;;5077102;28;20417;-95
2023/02/11 05:14:13;;;;;;;18.47;9.20;;;;;;;;;;5074656;28;20910;-91
2023/02/11 05:16:39;;;;;;;21.13;10.23;;;;;;;;;;5076919;28;20404;-89
2023/02/11 05:19:04;;;;;;;19.83;9.60;;;;;;;;;;5091874;28;20470;-91
2023/02/11 05:21:30;;;;;;;30.63;10.30;;;;;;;;;;5077005;28;20765;-90
2023/02/11 05:23:56;;;;;;;16.87;9.13;;;;;;;;;;5077655;28;20798;-93
2023/02/11 05:26:22;;;;;;;27.80;8.17;;;;;;;;;;5079219;28;20406;-94
2023/02/11 05:28:48;;;;;;;16.60;9.10;;;;;;;;;;5076858;28;20504;-94
2023/02/11 05:31:15;;;;;;;21.37;9.97;;;;;;;;;;5075697;28;20521;-93
2023/02/11 05:33:42;;;;;;;19.50;9.67;;;;;;;;;;5075369;28;20763;-95
2023/02/11 05:36:09;;;;;;;20.10;9.50;;;;;;;;;;5078302;28;20456;-89
2023/02/11 05:38:35;;;;;;;18.20;8.40;;;;;;;;;;5079169;28;20417;-89
2023/02/11 05:41:01;;;;;;;22.97;10.60;;;;;;;;;;5077570;28;20934;-91
2023/02/11 05:43:27;;;;;;;18.70;8.60;;;;;;;;;;5078855;28;20417;-86
2023/02/11 05:45:54;;;;;;;19.97;9.90;;;;;;;;;;5077229;28;20463;-94
2023/02/11 05:48:19;;;;;;;16.30;8.87;;;;;;;;;;5076460;28;20410;-92
2023/02/11 05:50:45;;;;;;;13.73;9.23;;;;;;;;;;5080280;28;20407;-94
2023/02/11 05:53:11;;;;;;;17.83;9.53;;;;;;;;;;5079560;28;20422;-91
2023/02/11 05:55:40;;;;;;;20.53;9.27;;;;;;;;;;5080742;28;20436;-85
2023/02/11 05:58:07;;;;;;;14.93;8.70;;;;;;;;;;5079789;28;20448;-91
2023/02/11 06:00:43;;;;;;;25.13;9.47;;;;;;;;;;5080307;28;20460;-93
2023/02/11 06:03:12;;;;;;;18.50;9.20;;;;;;;;;;5094723;28;20471;-92
2023/02/11 06:05:38;;;;;;;17.73;8.70;;;;;;;;;;5079345;28;20456;-92
2023/02/11 06:08:08;;;;;;;12.93;7.40;;;;;;;;;;5077731;28;20412;-94
2023/02/11 06:10:35;;;;;;;12.43;7.33;;;;;;;;;;5077406;28;20475;-93
2023/02/11 06:13:01;;;;;;;20.67;8.50;;;;;;;;;;5077349;28;20451;-91
2023/02/11 06:15:27;;;;;;;16.70;7.50;;;;;;;;;;5075404;28;20988;-90
2023/02/11 06:17:54;;;;;;;15.73;6.90;;;7.60;99.90;;;;;;5074140;28;20451;-92
2023/02/11 06:20:20;;;;;;;17.00;7.90;;;7.30;99.90;;;;;;5091221;28;20987;-94
2023/02/11 06:22:46;;;;;;;13.53;9.13;;;7.30;99.90;;;;;;5073984;28;20420;-94
2023/02/11 06:25:12;;;;;;;16.23;8.10;;;7.20;99.90;;;;;;5074413;28;20209;-94
2023/02/11 06:27:38;;;;;;;18.73;8.43;;;7.20;99.90;;;;;;5075649;28;20174;-89
2023/02/11 06:30:05;;;;;;;20.70;8.40;;;7.20;99.90;;;;;;5074673;28;20527;-94
2023/02/11 06:32:31;;;;;;;11.63;8.47;;;7.30;99.90;;;;;;5075249;28;20421;-94
2023/02/11 06:34:56;;;;;;;15.40;8.03;;;7.20;99.90;;;;;;5073341;28;20421;-88
2023/02/11 06:37:22;;;;;;;19.73;7.63;;;7.10;99.90;;;;;;5073543;28;20184;-92
2023/02/11 06:39:56;;;;;;;11.10;6.30;;;7.20;99.90;;;;;;5074340;28;20623;-94
2023/02/11 06:42:22;;;;;;;12.83;6.90;;;7.20;99.90;;;;;;5079068;28;20262;-88
2023/02/11 06:44:47;;;;;;;16.13;8.70;;;7.20;99.90;;;;;;5077080;28;20903;-92
2023/02/11 06:47:13;;;;;;;18.83;8.03;;;7.20;99.90;;;;;;5084664;28;20211;-88
2023/02/11 06:49:41;;;;;;;15.90;8.07;;;7.20;99.90;;;;;;5077793;28;20190;-94
2023/02/11 06:52:07;;;;;;;12.47;7.10;;;;;;;;;;5078137;28;20179;-94
2023/02/11 06:54:33;;;;;;;13.40;7.30;;;;;;;;;;5077611;28;20467;-93
2023/02/11 06:56:58;;;;;;;12.87;7.87;;;7.40;99.90;;;;;;5077289;28;20444;-90
2023/02/11 06:59:24;;;;;;;11.73;7.20;;;7.40;99.90;;;;;;5082418;28;20481;-93
2023/02/11 07:01:49;;;;;;;13.30;7.43;;;7.30;99.90;;;;;;5082344;28;20269;-95
2023/02/11 07:04:15;;;;;;;15.27;7.00;;;7.40;99.90;;;;;;5082625;28;20218;-94
2023/02/11 07:06:40;;;;;;;13.10;7.40;;;7.40;99.90;;;;;;5080278;28;20171;-86
2023/02/11 07:09:07;;;;;;;16.37;7.87;;;7.40;99.90;;;;;;5079068;28;20195;-91
2023/02/11 07:11:33;;;;;;;14.90;8.33;;;7.30;99.90;;;;;;5078966;28;20184;-93
2023/02/11 07:14:02;;;;;;;19.80;8.03;;;7.30;99.90;;;;;;5078013;28;20422;-91
2023/02/11 07:16:27;;;;;;;12.87;8.07;;;7.40;99.90;;;;;;5031574;28;20462;-91
2023/02/11 07:18:53;;;;;;;16.83;6.50;;;7.30;99.90;;;;;;5058808;28;20427;-93
2023/02/11 07:21:20;;;;;;;14.47;7.87;;;7.30;99.90;;;;;;5064716;28;20175;-92
2023/02/11 07:23:47;;;;;;;15.37;7.40;;;7.30;99.90;;;;;;5060706;28;20174;-86
2023/02/11 07:26:15;;;;;;;14.60;5.87;;;7.30;99.90;;;;;;5063416;28;20418;-94
2023/02/11 07:28:44;;;;;;;11.23;7.20;;;7.40;99.90;;;;;;5062696;28;20431;-92
2023/02/11 07:31:13;;;;;;;12.93;7.53;;;7.20;99.90;;;;;;5062848;28;20481;-93
2023/02/11 07:33:39;;;;;;;9.43;6.73;;;7.30;99.90;;;;;;5063035;28;20442;-87
2023/02/11 07:36:06;;;;;;;15.03;7.80;;;7.40;99.90;;;;;;5067105;28;20453;-88
2023/02/11 07:38:32;;;;;;;18.40;8.83;;;7.40;99.90;;;;;;5064650;28;20419;-93
2023/02/11 07:41:08;;;;;;;12.37;6.20;;;7.30;99.90;;;;;;5058117;28;20852;-95
2023/02/11 07:43:34;;;;;;;18.50;8.80;;;;;;;;;;5060730;28;20774;-95
2023/02/11 07:46:07;;;;;;;17.70;8.00;;;;;;;;;;5059632;28;20426;-88
2023/02/11 07:48:42;;;;;;;16.47;8.07;;;;;;;;;;5057758;28;20441;-95
2023/02/11 07:51:09;;;;;;;13.93;8.00;;;;;;;;;;5058782;28;20769;-93
2023/02/11 07:53:36;;;;;;;17.37;7.97;;;;;;;;;;5058357;28;20418;-92
2023/02/11 07:56:02;;;;;;;22.33;9.67;;;;;;;;;;5058058;28;20820;-92
2023/02/11 07:58:28;;;;;;;17.13;8.60;;;;;;;;;;5057738;28;20406;-94
2023/02/11 08:00:54;;;;;;;23.03;10.50;;;;;;;;;;5057476;28;20488;-94
2023/02/11 08:03:20;;;;;;;18.33;8.47;;;;;;;;;;5055681;28;20477;-93
2023/02/11 08:05:46;;;;;;;19.13;7.53;;;;;;;;;;5057196;28;20421;-94
2023/02/11 08:08:12;;;;;;;12.70;7.40;;;;;;;;;;5061034;28;20403;-94
2023/02/11 08:10:38;;;;;;;16.60;6.93;;;;;;;;;;5061721;28;20775;-92
2023/02/11 08:13:04;;;;;;;14.13;7.53;;;;;;;;;;5058182;28;20417;-93
2023/02/11 08:15:29;;;;;;;13.00;8.10;;;7.60;99.90;;;;;;5065163;28;20423;-92
2023/02/11 08:17:58;;;;;;;14.30;7.40;;;;;;;;;;5058266;28;20443;-92
2023/02/11 08:20:24;;;;;;;15.23;6.70;;;;;;;;;;5049622;28;20352;-90
2023/02/11 08:22:50;;;;;;;18.27;7.40;;;;;;;;;;5077370;28;20452;-91
2023/02/11 08:25:16;;;;;;;12.70;6.00;;;;;;;;;;5076917;28;20849;-91
2023/02/11 08:27:42;;;;;;;13.83;6.30;;;;;;;;;;5080067;28;20429;-89
2023/02/11 08:30:08;;;;;;;15.60;7.67;;;;;;;;;;5086701;28;20423;-93
2023/02/11 08:32:34;;;;;;;12.90;7.47;;;;;;;;;;5079837;28;20908;-88
2023/02/11 08:35:00;;;;;;;19.47;8.20;;;;;;;;;;5085457;28;20431;-93
2023/02/11 08:37:26;;;;;;;17.30;8.70;;;;;;;;;;5087334;28;20399;-85
2023/02/11 08:39:52;;;;;;;21.03;9.23;;;;;;;;;;5078167;28;20451;-86
2023/02/11 08:42:18;;;;;;;13.03;6.63;;;;;;;;;;5078361;28;20419;-94
2023/02/11 08:44:44;;;;;;;12.10;7.00;;;;;;;;;;5079349;28;20415;-94
2023/02/11 08:47:10;;;;;;;12.60;6.67;;;;;;;;;;5086087;28;20426;-94
2023/02/11 08:49:36;;;;;;;16.00;8.00;;;;;;;;;;5083725;28;20411;-87
2023/02/11 08:52:03;;;;;;;13.77;6.23;;;;;;;;;;5082893;28;20500;-95
2023/02/11 08:54:29;;;;;;;13.80;8.03;;;;;;;;;;5087317;28;20406;-94
2023/02/11 08:56:55;;;;;;;14.03;7.47;;;;;;;;;;5083281;28;20419;-92
2023/02/11 08:59:21;;;;;;;11.73;5.87;;;;;;;;;;5081352;28;20447;-93
2023/02/11 09:01:47;;;;;;;14.13;7.80;;;;;;;;;;5077101;28;20467;-93
2023/02/11 09:04:13;;;;;;;12.90;6.37;;;;;;;;;;5076625;28;20469;-91
2023/02/11 09:06:39;;;;;;;11.17;6.70;;;;;;;;;;5080811;28;20419;-93
2023/02/11 09:09:05;;;;;;;10.10;5.70;;;;;;;;;;5076284;28;20889;-91
2023/02/11 09:11:32;;;;;;;14.33;6.77;;;;;;;;;;5074986;28;20503;-90
2023/02/11 09:13:59;;;;;;;16.67;7.40;;;;;;;;;;5076074;28;20437;-93
2023/02/11 09:16:26;;;;;;;11.40;5.00;;;;;;;;;;5077986;28;20414;-93
2023/02/11 09:18:52;;;;;;;16.70;8.10;;;;;;;;;;5079530;28;20410;-92
2023/02/11 09:21:19;;;;;;;16.10;7.03;;;;;;;;;;5077126;28;20754;-92
2023/02/11 09:23:46;;;;;;;14.93;6.77;;;;;;;;;;5074971;28;20409;-89
2023/02/11 09:26:31;;;;;;;13.50;7.07;;;;;;;;;;5074733;28;20419;-91
2023/02/11 09:29:00;;;;;;;18.10;7.47;;;;;;;;;;5074572;28;20437;-93
2023/02/11 09:31:27;;;;;;;20.37;7.60;;;;;;;;;;5074736;28;20446;-90
2023/02/11 09:33:54;;;;;;;16.97;8.13;;;;;;;;;;5076497;28;20448;-92
2023/02/11 09:36:21;;;;;;;18.10;7.07;;;;;;;;;;5078549;28;20417;-93
2023/02/11 09:38:51;;;;;;;12.13;6.00;;;;;;;;;;5076158;28;20471;-87
2023/02/11 09:41:23;;;;;;;9.90;6.63;;;;;;;;;;5040088;28;20440;-94
2023/02/11 09:43:50;;;;;;;12.70;6.90;;;;;;;;;;5086118;28;20402;-87
2023/02/11 09:46:17;;;;;;;17.93;7.27;;;;;;;;;;5077053;28;20732;-89
2023/02/11 09:48:45;;;;;;;10.70;7.10;;;;;;;;;;5076031;28;20918;-87
2023/02/11 09:51:18;;;;;;;15.50;7.17;;;;;;;;;;5075969;28;20410;-90
2023/02/11 09:53:49;;;;;;;14.50;6.50;;;;;;;;;;5073750;28;20442;-89
2023/02/11 09:56:15;;;;;;;13.00;8.40;;;;;;;;;;5076231;28;20416;-86
2023/02/11 09:58:44;;;;;;;20.33;7.43;;;;;;;;;;5073145;28;20453;-87
2023/02/11 10:01:22;;;;;;;16.57;7.07;;;;;;;;;;5074759;28;20521;-90
2023/02/11 10:03:52;;;;;;;16.10;6.37;;;;;;;;;;5073991;28;20487;-89
2023/02/11 10:06:36;;;;;;;14.10;6.87;;;;;;;;;;5057280;28;20424;-88
2023/02/11 10:09:21;;;;;;;10.50;5.47;;;;;;;;;;5052668;28;20498;-88
2023/02/11 10:12:00;;;;;;;19.27;7.30;;;;;;;;;;5055072;28;20833;-90
2023/02/11 10:14:32;;;;;;;9.40;5.00;;;;;;;;;;5054228;28;20428;-90
2023/02/11 10:17:18;;;;;;;10.90;6.93;;;;;;;;;;5054105;28;20416;-91
2023/02/11 10:20:02;;;;;;;16.63;5.53;;;;;;;;;;5042763;28;20470;-89
2023/02/11 10:22:35;;;;;;;13.87;5.43;;;;;;;;;;5054420;28;20451;-92
2023/02/11 10:25:05;;;;;;;12.63;5.90;;;;;;;;;;5054039;28;20424;-89
2023/02/11 10:27:34;;;;;;;17.00;5.13;;;;;;;;;;5053726;28;20452;-92
2023/02/11 10:30:07;;;;;;;16.43;4.33;;;;;;;;;;5067559;28;20505;-88
2023/02/11 10:32:45;;;;;;;11.80;5.97;;;;;;;;;;5065715;28;20431;-90
2023/02/11 10:35:16;;;;;;;15.27;4.53;;;;;;;;;;5059428;28;20888;-86
2023/02/11 10:37:43;;;;;;;11.77;5.80;;;;;;;;;;5065149;28;20497;-87
2023/02/11 10:40:28;;;;;;;9.60;4.30;;;;;;;;;;5052630;28;20866;-85
2023/02/11 10:43:02;;;;;;;9.73;5.27;;;;;;;;;;5053176;28;20430;-87
2023/02/11 10:45:32;;;;;;;9.87;4.30;;;;;;;;;;5031602;28;20435;-86
2023/02/11 10:47:58;;;;;;;15.17;4.33;;;;;;;;;;5072838;28;20412;-90
2023/02/11 10:50:29;;;;;;;13.90;4.60;;;;;;;;;;5074206;28;20433;-90
2023/02/11 10:53:24;;;;;;;12.17;5.30;;;;;;;;;;5072416;28;20438;-86
2023/02/11 10:55:51;;;;;;;10.67;4.33;;;;;;;;;;5067998;28;20510;-91
2023/02/11 10:58:25;;;;;;;11.40;4.67;;;;;;;;;;5074339;28;20415;-93
2023/02/11 11:00:52;;;;;;;10.87;4.93;;;;;;;;;;5074128;28;20507;-90
2023/02/11 11:03:19;;;;;;;11.40;5.37;;;;;;;;;;5069914;28;20474;-90
2023/02/11 11:05:50;;;;;;;9.50;4.57;;;;;;;;;;5059159;28;20514;-89
2023/02/11 11:08:17;;;;;;;8.50;4.53;;;;;;;;;;5068798;28;20470;-92
2023/02/11 11:10:45;;;;;;;11.70;5.10;;;;;;;;;;5091035;28;20454;-88
2023/02/11 11:13:29;;;;;;;8.00;4.50;;;;;;;;;;5063722;28;20419;-84
2023/02/11 11:16:13;;;;;;;12.40;3.60;;;;;;;;;;5059222;28;20448;-81
2023/02/11 11:18:39;;;;;;;13.03;4.63;;;;;;;;;;5061953;28;20399;-82
2023/02/11 11:21:07;;;;;;;10.13;3.07;;;;;;;;;;5058744;28;20469;-83
2023/02/11 11:23:34;;;;;;;11.33;4.50;;;;;;;;;;5059205;28;20464;-81
2023/02/11 11:26:06;;;;;;;6.93;3.77;;;;;;;;;;5062363;28;20536;-84
2023/02/11 11:28:37;;;;;;;9.03;3.57;;;;;;;;;;5059588;28;20419;-86
2023/02/11 11:31:04;;;;;;;10.67;5.23;;;;;;;;;;5061293;28;20457;-83
2023/02/11 11:33:33;;;;;;;6.33;3.30;;;;;;;;;;5070253;28;20435;-81
2023/02/11 11:36:09;;;;;;;5.83;2.80;;;;;;;;;;5069817;28;20413;-81
2023/02/11 11:38:43;;;;;;;12.87;4.57;;;;;;;;;;5061289;28;20431;-81
2023/02/11 11:41:19;;;;;;;5.27;2.60;;;8.60;99.90;;;;;;5057561;28;20484;-83
2023/02/11 11:44:13;;;;;;;11.00;3.70;;;8.60;99.90;;;;;;5065273;28;20409;-83
2023/02/11 11:46:42;;;;;;;11.00;3.60;;;8.60;99.90;;;;;;5060771;28;20500;-80
2023/02/11 11:49:28;;;;;;;6.90;2.60;;;8.60;99.90;;;;;;5059109;28;20463;-82
2023/02/11 11:52:13;;;;;;;8.10;2.83;;;8.70;99.90;;;;;;5060433;28;20435;-84
2023/02/11 11:54:41;;;;;;;8.17;3.40;;;8.80;99.90;;;;;;5061197;28;20426;-85
2023/02/11 11:57:29;;;;;;;12.47;3.60;;;8.70;99.90;;;;;;5058678;28;20986;-83
2023/02/11 11:59:57;;;;;;;7.53;2.80;;;8.70;99.90;;;;;;5060484;28;21303;-81
2023/02/11 12:02:38;;;;;;;6.67;1.87;;;8.70;99.90;;;;;;5064349;28;20459;-94
2023/02/11 12:05:27;;;;;;;5.70;2.23;;;8.70;99.90;;;;;;5073963;28;20566;-81
2023/02/11 12:08:10;;;;;;;5.40;2.30;;;8.70;99.90;;;;;;5062278;28;20909;-82
2023/02/11 12:10:53;;;;;;;8.47;3.00;;;8.80;99.90;;;;;;5059638;28;20402;-83
2023/02/11 12:13:34;;;;;;;7.20;3.30;;;8.70;99.90;;;;;;5064463;28;20514;-79
2023/02/11 12:16:35;;;;;;;7.53;2.47;;;8.80;99.90;;;;;;5063412;28;20411;-80
2023/02/11 12:19:06;;;;;;;10.23;2.97;;;8.70;99.90;;;;;;5055362;28;20831;-83
2023/02/11 12:21:59;;;;;;;9.10;2.93;;;8.80;99.90;;;;;;5053154;28;20440;-80
2023/02/11 12:24:53;;;;;;;6.30;2.60;;;8.70;99.90;;;;;;5054407;28;20440;-82
2023/02/11 12:27:31;;;;;;;12.90;3.13;;;8.70;99.90;;;;;;5054912;28;20478;-78
2023/02/11 12:30:03;;;;;;;8.00;2.83;;;8.60;99.90;;;;;;5053484;28;20442;-76
2023/02/11 12:32:52;;;;;;;4.67;2.87;;;8.60;99.90;;;;;;5054718;28;20408;-77
2023/02/11 12:35:41;;;;;;;6.03;3.00;;;8.60;99.90;;;;;;5054989;28;20409;-76
2023/02/11 12:38:25;;;;;;;7.60;3.80;;;8.70;99.90;;;;;;5055046;28;20421;-77
2023/02/11 12:44:39;;;;;;;8.00;3.87;;;8.60;99.90;;;;;;5054932;28;20439;-76
2023/02/11 12:47:19;;;;;;;12.97;5.37;;;8.40;99.90;;;;;;5016066;28;20416;-76
2023/02/11 12:50:16;;;;;;;7.73;4.73;;;8.60;99.90;;;;;;5053649;28;20422;-76
2023/02/11 12:53:09;;;;;;;6.90;4.10;;;8.60;99.90;;;;;;5054980;28;20494;-77
2023/02/11 12:55:39;;;;;;;10.27;6.10;;;8.70;99.90;;;;;;5054672;28;20413;-76
2023/02/11 12:58:08;;;;;;;11.70;5.13;;;;;;;;;;5054819;28;20409;-77
2023/02/11 13:00:34;;;;;;;9.47;4.77;;;;;;;;;;5054781;28;20578;-77
2023/02/11 13:03:06;;;;;;;10.77;4.47;;;;;;;;;;5054321;28;20521;-76
2023/02/11 13:05:42;;;;;;;15.37;5.93;;;;;;;;;;5053285;28;20192;-76
2023/02/11 13:08:12;;;;;;;8.80;3.73;;;;;;;;;;5054653;28;20427;-76
2023/02/11 13:10:40;;;;;;;9.30;4.53;;;;;;;;;;5053429;28;20418;-76
2023/02/11 13:13:16;;;;;;;5.53;3.97;;;;;;;;;;5053314;28;20426;-76
2023/02/11 13:15:44;;;;;;;7.03;4.23;;;;;;;;;;5054267;28;20455;-76
2023/02/11 13:18:16;;;;;;;8.97;4.80;;;;;;;;;;5053162;28;20413;-76
2023/02/11 13:20:47;;;;;;;11.43;4.43;;;;;;;;;;5054348;28;20484;-76
2023/02/11 13:23:18;;;;;;;8.43;3.70;;;;;;;;;;5054282;28;20416;-76
2023/02/11 13:25:54;;;;;;;10.00;4.43;;;;;;;;;;5055834;28;21046;-76
2023/02/11 13:28:25;;;;;;;7.90;3.47;;;;;;;;;;5073984;28;20933;-76
2023/02/11 13:31:00;;;;;;;8.43;4.67;;;;;;;;;;5074285;28;20408;-76
2023/02/11 13:33:31;;;;;;;8.30;3.70;;;;;;;;;;5073569;28;20482;-76
2023/02/11 13:35:57;;;;;;;10.47;4.27;;;;;;;;;;5073262;28;20427;-76
2023/02/11 13:38:27;;;;;;;8.33;3.60;;;;;;;;;;5073428;28;20907;-76
2023/02/11 13:41:03;;;;;;;3.90;2.50;;;;;;;;;;5073874;28;20213;-76
2023/02/11 13:43:30;;;;;;;6.50;3.57;;;;;;;;;;5072364;28;20415;-76
2023/02/11 13:46:08;;;;;;;6.43;3.00;;;;;;;;;;5030011;28;20478;-75
2023/02/11 13:48:36;;;;;;;5.60;3.23;;;;;;;;;;5073015;28;20923;-77
2023/02/11 13:51:04;;;;;;;9.53;4.73;;;;;;;;;;5071935;28;20518;-76
2023/02/11 13:53:43;;;;;;;9.23;3.37;;;;;;;;;;5072846;28;20453;-76
2023/02/11 13:56:22;;;;;;;10.47;4.23;;;;;;;;;;5073508;28;20405;-76
2023/02/11 13:58:49;;;;;;;9.17;4.70;;;;;;;;;;5073412;28;20509;-76
2023/02/11 14:01:38;;;;;;;12.13;4.57;;;;;;;;;;5072581;28;20500;-76
2023/02/11 14:10:03;;;;;;;9.43;3.80;;;;;;;;;;5041021;28;21037;-76
2023/02/11 14:12:33;;;;;;;8.23;3.90;;;;;;;;;;5072569;28;20829;-76
2023/02/11 14:15:05;;;;;;;15.83;6.50;;;;;;;;;;5071259;28;20454;-76
2023/02/11 14:17:34;;;;;;;7.60;3.83;;;;;;;;;;5072591;28;20416;-76
2023/02/11 14:20:01;;;;;;;11.83;5.70;;;;;;;;;;5071133;28;20537;-76
2023/02/11 14:22:40;;;;;;;9.83;4.90;;;;;;;;;;5068104;28;20411;-76
2023/02/11 14:25:16;;;;;;;9.00;3.90;;;;;;;;;;5071221;28;20422;-76
2023/02/11 14:27:43;;;;;;;14.93;5.07;;;;;;;;;;5071823;28;20411;-76
2023/02/11 14:30:10;;;;;;;12.00;4.17;;;;;;;;;;5072122;28;20407;-76
2023/02/11 14:32:51;;;;;;;14.00;6.40;;;;;;;;;;5072305;28;20410;-76
2023/02/11 14:35:39;;;;;;;10.63;4.80;;;;;;;;;;5071734;28;20418;-76